createdAt,value
2019-05-21T00:00:31.696Z,26.13
2019-05-21T00:06:36.324Z,25.60
2019-05-21T00:12:40.900Z,25.70
2019-05-21T00:18:45.475Z,25.53
2019-05-21T00:24:50.409Z,25.57
2019-05-21T00:31:49.563Z,26.67
2019-05-21T00:38:51.977Z,21.10
2019-05-21T00:44:55.273Z,33.63
2019-05-21T00:50:59.846Z,31.80
2019-05-21T00:57:04.557Z,34.03
2019-05-21T01:03:09.151Z,33.70
2019-05-21T01:09:13.801Z,35.90
2019-05-21T01:15:18.434Z,33.83
2019-05-21T01:21:23.084Z,35.40
2019-05-21T01:27:27.663Z,32.93
2019-05-21T01:33:32.238Z,33.23
2019-05-21T01:39:36.804Z,34.97
2019-05-21T01:45:41.387Z,36.37
2019-05-21T01:51:46.071Z,42.27
2019-05-21T01:57:50.679Z,41.57
2019-05-21T02:03:55.297Z,45.90
2019-05-21T02:09:59.866Z,41.70
2019-05-21T02:16:04.620Z,46.70
2019-05-21T02:22:09.213Z,49.63
2019-05-21T02:28:13.819Z,52.93
2019-05-21T02:34:18.413Z,43.60
2019-05-21T02:40:23.256Z,41.30
2019-05-21T02:46:27.905Z,38.60
2019-05-21T02:52:32.489Z,42.80
2019-05-21T02:58:37.128Z,38.10
2019-05-21T03:04:41.703Z,39.20
2019-05-21T03:10:46.426Z,37.53
2019-05-21T03:16:51.056Z,38.43
2019-05-21T03:22:55.637Z,30.87
2019-05-21T03:29:00.314Z,35.10
2019-05-21T03:35:07.473Z,32.87
2019-05-21T03:41:12.036Z,36.40
2019-05-21T03:47:16.665Z,40.03
2019-05-21T03:53:21.240Z,38.10
2019-05-21T03:59:25.835Z,34.50
2019-05-21T04:05:30.497Z,29.73
2019-05-21T04:11:35.171Z,28.07
2019-05-21T04:17:56.481Z,30.93
2019-05-21T04:24:01.115Z,27.47
2019-05-21T04:30:11.188Z,29.63
2019-05-21T04:36:14.489Z,19.20
2019-05-21T04:42:19.074Z,20.33
2019-05-21T04:48:23.780Z,22.67
2019-05-21T04:54:28.345Z,25.63
2019-05-21T05:00:33.025Z,21.70
2019-05-21T05:06:37.590Z,26.80
2019-05-21T05:12:42.161Z,41.57
2019-05-21T05:18:46.730Z,35.77
2019-05-21T05:24:51.295Z,43.93
2019-05-21T05:30:57.131Z,42.77
2019-05-21T05:37:01.734Z,44.27
2019-05-21T05:43:06.290Z,48.40
2019-05-21T05:49:18.407Z,39.03
2019-05-21T05:55:23.053Z,40.40
2019-05-21T06:01:29.362Z,43.57
2019-05-21T06:07:33.934Z,38.00
2019-05-21T06:13:38.512Z,31.57
2019-05-21T06:19:43.240Z,33.57
2019-05-21T06:25:47.976Z,36.03
2019-05-21T06:31:52.535Z,30.67
2019-05-21T06:37:57.186Z,29.40
2019-05-21T06:44:01.867Z,30.03
2019-05-21T06:50:07.201Z,24.53
2019-05-21T06:56:11.765Z,20.93
2019-05-21T07:02:16.437Z,13.70
2019-05-21T07:08:34.140Z,11.30
2019-05-21T07:14:27.302Z,8.97
2019-05-21T07:20:31.863Z,9.50
2019-05-21T07:26:36.499Z,5.50
2019-05-21T07:32:41.163Z,10.93
2019-05-21T07:38:53.213Z,7.03
2019-05-21T07:44:52.203Z,9.40
2019-05-21T07:50:56.885Z,11.57
2019-05-21T07:57:01.527Z,20.53
2019-05-21T08:03:06.092Z,18.33
2019-05-21T08:09:14.442Z,14.50
2019-05-21T08:15:19.066Z,12.80
2019-05-21T08:21:23.697Z,8.77
2019-05-21T08:27:28.250Z,9.83
2019-05-21T08:33:32.828Z,5.97
2019-05-21T08:39:37.425Z,7.77
2019-05-21T08:45:42.064Z,8.17
2019-05-21T08:51:46.647Z,7.83
2019-05-21T08:58:06.338Z,9.67
2019-05-21T09:03:57.513Z,13.63
2019-05-21T09:10:02.173Z,11.03
2019-05-21T09:16:06.906Z,12.57
2019-05-21T09:22:11.916Z,13.67
2019-05-21T09:28:16.644Z,12.13
2019-05-21T09:34:23.124Z,11.67
2019-05-21T09:40:29.458Z,13.03
2019-05-21T09:46:35.024Z,13.97
2019-05-21T09:52:39.822Z,16.90
2019-05-21T09:58:46.032Z,11.80
2019-05-21T10:04:50.671Z,14.63
2019-05-21T10:10:55.375Z,10.87
2019-05-21T10:16:59.920Z,9.20
2019-05-21T10:23:04.579Z,10.70
2019-05-21T10:29:09.288Z,12.37
2019-05-21T10:35:14.029Z,6.53
2019-05-21T10:41:19.989Z,5.83
2019-05-21T10:47:24.654Z,6.30
2019-05-21T10:53:29.301Z,4.83
2019-05-21T10:59:33.998Z,4.90
2019-05-21T11:05:40.260Z,4.27
2019-05-21T11:11:45.041Z,4.87
2019-05-21T11:18:07.365Z,4.50
2019-05-21T11:23:56.096Z,4.10
2019-05-21T11:30:00.837Z,4.50
2019-05-21T11:36:08.846Z,4.53
2019-05-21T11:42:13.767Z,3.57
2019-05-21T11:48:18.507Z,2.83
2019-05-21T11:54:23.415Z,2.73
2019-05-21T12:00:29.262Z,3.07
2019-05-21T12:06:33.854Z,2.57
2019-05-21T12:12:38.412Z,2.70
2019-05-21T12:18:42.965Z,3.27
2019-05-21T12:24:47.724Z,3.90
2019-05-21T12:30:52.267Z,5.17
2019-05-21T12:36:56.911Z,5.50
2019-05-21T12:43:01.545Z,4.20
2019-05-21T12:49:06.227Z,5.00
2019-05-21T12:55:10.962Z,5.17
2019-05-21T13:01:15.512Z,3.80
2019-05-21T13:07:20.209Z,5.23
2019-05-21T13:13:24.864Z,4.83
2019-05-21T13:19:29.487Z,5.03
2019-05-21T13:25:35.022Z,4.93
2019-05-21T13:31:39.573Z,4.60
2019-05-21T13:37:44.130Z,5.57
2019-05-21T13:43:48.849Z,6.80
2019-05-21T13:49:53.385Z,7.60
2019-05-21T13:55:57.982Z,10.57
2019-05-21T14:02:02.805Z,8.03
2019-05-21T14:08:07.464Z,10.23
2019-05-21T14:14:12.176Z,9.33
2019-05-21T14:20:17.073Z,10.57
2019-05-21T14:26:21.696Z,12.40
2019-05-21T14:32:26.375Z,17.10
2019-05-21T14:38:31.070Z,13.23
2019-05-21T14:44:35.708Z,13.67
2019-05-21T14:50:40.431Z,13.60
2019-05-21T14:56:47.556Z,10.93
2019-05-21T15:02:51.452Z,8.67
2019-05-21T15:08:56.105Z,8.27
2019-05-21T15:15:00.732Z,6.20
2019-05-21T15:21:10.203Z,6.80
2019-05-21T15:27:15.473Z,8.17
2019-05-21T15:33:20.058Z,5.90
2019-05-21T15:39:24.712Z,3.90
2019-05-21T15:45:29.341Z,5.40
2019-05-21T15:51:34.151Z,3.87
2019-05-21T15:57:38.739Z,4.90
2019-05-21T16:03:43.328Z,3.80
2019-05-21T16:09:47.937Z,5.90
2019-05-21T16:15:52.516Z,4.10
2019-05-21T16:21:57.060Z,4.97
2019-05-21T16:28:01.640Z,5.07
2019-05-21T16:34:07.221Z,5.07
2019-05-21T16:40:13.263Z,7.43
2019-05-21T16:46:17.920Z,13.50
2019-05-21T16:52:23.203Z,16.17
2019-05-21T16:58:27.858Z,18.10
2019-05-21T17:04:32.592Z,19.00
2019-05-21T17:10:37.158Z,16.23
2019-05-21T17:16:41.736Z,19.47
2019-05-21T17:22:46.370Z,17.13
2019-05-21T17:28:51.057Z,18.40
2019-05-21T17:34:55.877Z,17.67
2019-05-21T17:41:00.548Z,17.07
2019-05-21T17:47:05.268Z,21.43
2019-05-21T17:53:10.071Z,18.80
2019-05-21T17:59:14.730Z,18.33
2019-05-21T18:05:20.976Z,22.60
2019-05-21T18:11:25.605Z,17.60
2019-05-21T18:17:31.115Z,18.50
2019-05-21T18:23:36.558Z,19.47
2019-05-21T18:29:41.476Z,21.73
2019-05-21T18:35:46.058Z,22.30
2019-05-21T18:41:50.735Z,21.30
2019-05-21T18:47:55.362Z,21.53
2019-05-21T18:54:00.002Z,24.37
2019-05-21T19:00:10.804Z,24.40
2019-05-21T19:06:15.661Z,22.90
2019-05-21T19:12:20.352Z,21.17
2019-05-21T19:18:25.142Z,20.93
2019-05-21T19:24:29.786Z,19.83
2019-05-21T19:30:34.485Z,22.90
2019-05-21T19:36:39.080Z,22.50
2019-05-21T19:42:54.538Z,25.80
2019-05-21T19:48:49.988Z,24.37
2019-05-21T19:54:54.715Z,20.67
2019-05-21T20:00:59.822Z,21.20
2019-05-21T20:07:06.323Z,19.53
2019-05-21T20:13:10.980Z,21.37
2019-05-21T20:19:17.844Z,24.70
2019-05-21T20:25:23.703Z,20.77
2019-05-21T20:31:28.718Z,24.80
2019-05-21T20:37:34.521Z,18.27
2019-05-21T20:43:39.667Z,19.40
2019-05-21T20:49:46.179Z,24.13
2019-05-21T20:55:51.440Z,18.47
2019-05-21T21:01:57.427Z,24.40
2019-05-21T21:08:02.730Z,20.90
2019-05-21T21:14:18.021Z,20.17
2019-05-21T21:20:15.708Z,18.10
2019-05-21T21:26:20.737Z,20.63
2019-05-21T21:32:25.538Z,17.83
2019-05-21T21:38:31.741Z,18.47
2019-05-21T21:44:37.944Z,21.80
2019-05-21T21:50:42.770Z,17.70
2019-05-21T21:56:47.467Z,18.43
2019-05-21T22:02:52.446Z,19.60
2019-05-21T22:08:58.427Z,19.50
2019-05-21T22:15:04.797Z,19.40
2019-05-21T22:21:09.569Z,23.30
2019-05-21T22:27:14.588Z,17.43
2019-05-21T22:33:19.987Z,26.53
2019-05-21T22:39:26.461Z,23.00
2019-05-21T22:45:31.372Z,28.73
2019-05-21T22:51:36.012Z,31.00
2019-05-21T22:57:40.828Z,29.00
2019-05-21T23:03:46.157Z,29.27
2019-05-21T23:09:50.752Z,41.47
2019-05-21T23:15:56.635Z,31.83
2019-05-21T23:22:01.748Z,29.77
2019-05-21T23:28:06.412Z,28.30
2019-05-21T23:34:13.515Z,28.30
2019-05-21T23:40:18.428Z,31.90
2019-05-21T23:46:23.060Z,32.00
2019-05-21T23:52:28.188Z,32.53
2019-05-21T23:58:33.638Z,33.30
